createdAt,value
2019-01-04T00:00:00.192Z,1.80
2019-01-04T00:02:28.195Z,1.80
2019-01-04T00:04:55.735Z,1.70
2019-01-04T00:07:23.311Z,1.70
2019-01-04T00:09:50.930Z,1.50
2019-01-04T00:12:18.840Z,1.50
2019-01-04T00:14:46.446Z,1.50
2019-01-04T00:17:14.368Z,1.30
2019-01-04T00:19:41.911Z,1.70
2019-01-04T00:22:10.211Z,1.30
2019-01-04T00:24:37.803Z,1.50
2019-01-04T00:27:05.406Z,1.20
2019-01-04T00:29:33.365Z,1.20
2019-01-04T00:32:01.018Z,1.50
2019-01-04T00:34:28.915Z,1.30
2019-01-04T00:36:56.555Z,1.30
2019-01-04T00:39:24.075Z,1.50
2019-01-04T00:41:52.121Z,1.60
2019-01-04T00:44:20.903Z,1.50
2019-01-04T00:46:48.523Z,1.70
2019-01-04T00:49:16.400Z,1.60
2019-01-04T00:51:44.306Z,1.70
2019-01-04T00:54:12.174Z,1.60
2019-01-04T00:57:09.616Z,1.70
2019-01-04T01:00:16.166Z,1.50
2019-01-04T01:03:35.940Z,1.80
2019-01-04T01:06:56.339Z,1.60
2019-01-04T01:09:56.947Z,1.80
2019-01-04T01:13:02.205Z,1.40
2019-01-04T01:16:10.058Z,1.70
2019-01-04T01:19:20.873Z,1.70
2019-01-04T01:22:33.118Z,2.00
2019-01-04T01:25:37.284Z,1.70
2019-01-04T01:28:52.040Z,1.70
2019-01-04T01:31:54.211Z,1.60
2019-01-04T01:35:02.142Z,1.80
2019-01-04T01:38:04.031Z,1.60
2019-01-04T01:40:58.207Z,1.80
2019-01-04T01:44:13.683Z,1.60
2019-01-04T01:46:52.418Z,1.90
2019-01-04T01:49:56.123Z,1.70
2019-01-04T01:52:28.245Z,2.00
2019-01-04T01:54:56.086Z,1.60
2019-01-04T01:57:24.037Z,2.00
2019-01-04T01:59:52.176Z,2.00
2019-01-04T02:02:20.112Z,1.70
2019-01-04T02:04:47.734Z,2.00
2019-01-04T02:07:15.742Z,1.70
2019-01-04T02:09:43.929Z,1.90
2019-01-04T02:12:11.923Z,2.10
2019-01-04T02:14:39.407Z,2.30
2019-01-04T02:17:07.067Z,2.00
2019-01-04T02:19:35.076Z,2.30
2019-01-04T02:22:02.758Z,2.30
2019-01-04T02:24:30.891Z,2.20
2019-01-04T02:26:58.467Z,2.20
2019-01-04T02:29:26.461Z,2.20
2019-01-04T02:31:54.369Z,2.30
2019-01-04T02:34:22.299Z,2.30
2019-01-04T02:36:49.943Z,2.30
2019-01-04T02:39:17.839Z,2.20
2019-01-04T02:41:45.770Z,2.30
2019-01-04T02:44:13.882Z,2.20
2019-01-04T02:46:41.856Z,2.00
2019-01-04T02:49:09.383Z,2.20
2019-01-04T02:51:37.481Z,2.40
2019-01-04T02:54:05.428Z,2.50
2019-01-04T02:56:33.077Z,2.30
2019-01-04T02:59:00.954Z,2.30
2019-01-04T03:01:28.575Z,2.20
2019-01-04T03:03:56.158Z,2.40
2019-01-04T03:06:23.962Z,2.30
2019-01-04T03:08:51.732Z,2.30
2019-01-04T03:11:19.382Z,2.40
2019-01-04T03:13:48.127Z,2.50
2019-01-04T03:16:15.888Z,2.30
2019-01-04T03:18:43.716Z,2.50
2019-01-04T03:21:11.600Z,2.50
2019-01-04T03:23:39.507Z,2.50
2019-01-04T03:26:07.598Z,2.60
2019-01-04T03:28:36.042Z,2.30
2019-01-04T03:31:03.519Z,2.40
2019-01-04T03:33:31.376Z,2.30
2019-01-04T03:35:59.175Z,2.50
2019-01-04T03:38:26.794Z,2.30
2019-01-04T03:40:54.560Z,2.40
2019-01-04T03:43:22.375Z,2.40
2019-01-04T03:45:50.147Z,2.50
2019-01-04T03:48:18.006Z,2.50
2019-01-04T03:50:45.770Z,2.40
2019-01-04T03:53:13.643Z,2.50
2019-01-04T03:55:41.178Z,2.60
2019-01-04T03:58:08.796Z,2.50
2019-01-04T04:00:36.906Z,2.50
2019-01-04T04:03:23.850Z,1.80
2019-01-04T04:05:54.154Z,2.00
2019-01-04T04:08:22.404Z,2.50
2019-01-04T04:10:50.243Z,2.40
2019-01-04T04:13:18.111Z,2.40
2019-01-04T04:15:46.018Z,2.20
2019-01-04T04:18:13.970Z,2.40
2019-01-04T04:20:41.577Z,1.90
2019-01-04T04:23:10.099Z,2.40
2019-01-04T04:25:38.273Z,2.30
2019-01-04T04:28:05.783Z,2.30
2019-01-04T04:30:33.621Z,2.30
2019-01-04T04:33:01.263Z,2.60
2019-01-04T04:35:28.694Z,2.50
2019-01-04T04:37:56.537Z,2.20
2019-01-04T04:40:24.030Z,2.60
2019-01-04T04:42:51.842Z,2.30
2019-01-04T04:45:20.332Z,2.50
2019-01-04T04:47:48.442Z,2.60
2019-01-04T04:50:16.324Z,2.30
2019-01-04T04:52:43.951Z,2.50
2019-01-04T04:55:11.556Z,2.40
2019-01-04T04:57:40.004Z,2.50
2019-01-04T05:00:08.055Z,2.50
2019-01-04T05:02:36.238Z,2.50
2019-01-04T05:05:04.613Z,1.70
2019-01-04T05:07:32.439Z,2.30
2019-01-04T05:10:00.719Z,2.40
2019-01-04T05:12:29.320Z,2.40
2019-01-04T05:14:57.762Z,2.50
2019-01-04T05:17:26.776Z,2.40
2019-01-04T05:19:54.642Z,2.40
2019-01-04T05:22:22.887Z,2.40
2019-01-04T05:24:51.192Z,2.30
2019-01-04T05:27:19.454Z,2.40
2019-01-04T05:29:47.566Z,2.40
2019-01-04T05:32:15.695Z,2.50
2019-01-04T05:34:44.236Z,2.30
2019-01-04T05:37:12.099Z,2.50
2019-01-04T05:39:40.191Z,2.30
2019-01-04T05:42:08.251Z,2.40
2019-01-04T05:44:36.418Z,2.30
2019-01-04T05:47:04.611Z,2.40
2019-01-04T05:49:32.799Z,2.40
2019-01-04T05:52:00.569Z,2.30
2019-01-04T05:54:28.419Z,2.40
2019-01-04T05:56:56.340Z,2.50
2019-01-04T05:59:24.199Z,2.30
2019-01-04T06:01:52.039Z,2.60
2019-01-04T06:04:19.813Z,2.30
2019-01-04T06:06:48.084Z,2.30
2019-01-04T06:09:16.871Z,2.40
2019-01-04T06:11:44.547Z,2.40
2019-01-04T06:14:12.697Z,2.50
2019-01-04T06:16:40.602Z,2.40
2019-01-04T06:19:08.499Z,2.50
2019-01-04T06:21:36.336Z,2.10
2019-01-04T06:24:04.190Z,2.20
2019-01-04T06:26:31.700Z,2.40
2019-01-04T06:29:01.534Z,2.20
2019-01-04T06:31:29.363Z,2.50
2019-01-04T06:33:57.602Z,2.10
2019-01-04T06:36:25.414Z,2.20
2019-01-04T06:38:53.254Z,2.10
2019-01-04T06:41:21.413Z,1.90
2019-01-04T06:43:49.266Z,1.70
2019-01-04T06:46:18.695Z,2.20
2019-01-04T06:48:46.977Z,1.90
2019-01-04T06:51:14.866Z,1.80
2019-01-04T06:53:42.478Z,1.70
2019-01-04T06:56:11.025Z,1.70
2019-01-04T06:58:39.853Z,1.60
2019-01-04T07:01:08.180Z,1.50
2019-01-04T07:03:35.766Z,1.50
2019-01-04T07:06:04.224Z,1.30
2019-01-04T07:08:31.874Z,1.20
2019-01-04T07:11:02.152Z,1.30
2019-01-04T07:13:29.715Z,1.10
2019-01-04T07:15:58.378Z,1.40
2019-01-04T07:18:26.211Z,1.50
2019-01-04T07:20:54.104Z,1.20
2019-01-04T07:23:21.998Z,1.60
2019-01-04T07:25:50.344Z,1.50
2019-01-04T07:28:17.822Z,1.30
2019-01-04T07:30:45.743Z,1.60
2019-01-04T07:33:13.353Z,1.60
2019-01-04T07:35:41.166Z,1.30
2019-01-04T07:38:09.744Z,1.30
2019-01-04T07:40:37.341Z,1.30
2019-01-04T07:43:05.438Z,1.30
2019-01-04T07:45:33.621Z,1.40
2019-01-04T07:48:01.746Z,1.60
2019-01-04T07:50:29.802Z,1.70
2019-01-04T07:52:57.414Z,1.50
2019-01-04T07:55:26.123Z,1.50
2019-01-04T07:57:54.274Z,1.60
2019-01-04T08:00:22.610Z,1.50
2019-01-04T08:02:52.572Z,1.60
2019-01-04T08:05:25.658Z,1.60
2019-01-04T08:07:55.376Z,1.50
2019-01-04T08:10:23.593Z,1.70
2019-01-04T08:12:51.490Z,2.00
2019-01-04T08:15:18.975Z,2.00
2019-01-04T08:17:47.626Z,2.20
2019-01-04T08:20:15.770Z,2.10
2019-01-04T08:22:44.139Z,2.20
2019-01-04T08:25:12.902Z,1.90
2019-01-04T08:27:41.303Z,1.90
2019-01-04T08:30:22.537Z,2.00
2019-01-04T08:32:51.734Z,2.00
2019-01-04T08:35:19.855Z,2.10
2019-01-04T08:37:48.209Z,1.80
2019-01-04T08:40:16.112Z,2.20
2019-01-04T08:42:44.810Z,2.40
2019-01-04T08:45:13.894Z,2.40
2019-01-04T08:47:41.718Z,2.70
2019-01-04T08:50:11.256Z,2.40
2019-01-04T08:52:39.267Z,2.20
2019-01-04T08:55:12.549Z,2.40
2019-01-04T08:57:40.531Z,2.30
2019-01-04T09:00:11.831Z,2.30
2019-01-04T09:02:40.111Z,2.20
2019-01-04T09:05:07.910Z,2.50
2019-01-04T09:07:36.798Z,2.20
2019-01-04T09:10:05.356Z,2.50
2019-01-04T09:12:33.269Z,2.50
2019-01-04T09:15:01.203Z,2.70
2019-01-04T09:17:29.070Z,2.50
2019-01-04T09:19:56.828Z,2.40
2019-01-04T09:22:24.891Z,2.50
2019-01-04T09:24:52.491Z,2.50
2019-01-04T09:27:20.138Z,2.40
2019-01-04T09:29:48.347Z,2.60
2019-01-04T09:32:16.233Z,2.50
2019-01-04T09:34:44.427Z,2.50
2019-01-04T09:37:12.075Z,2.50
2019-01-04T09:39:40.106Z,2.50
2019-01-04T09:42:15.586Z,2.00
2019-01-04T09:44:44.463Z,2.40
2019-01-04T09:47:12.011Z,2.50
2019-01-04T09:49:40.106Z,2.50
2019-01-04T09:52:07.626Z,2.40
2019-01-04T09:54:35.514Z,2.40
2019-01-04T09:57:03.094Z,2.50
2019-01-04T09:59:30.898Z,2.50
2019-01-04T10:01:59.175Z,2.40
2019-01-04T10:04:29.092Z,2.20
2019-01-04T10:06:57.470Z,2.30
2019-01-04T10:09:25.948Z,2.30
2019-01-04T10:11:55.635Z,2.10
2019-01-04T10:14:23.818Z,2.20
2019-01-04T10:16:53.075Z,2.40
2019-01-04T10:19:21.807Z,2.30
2019-01-04T10:21:49.661Z,1.80
2019-01-04T10:24:18.668Z,2.60
2019-01-04T10:26:46.656Z,2.60
2019-01-04T10:29:15.744Z,2.90
2019-01-04T10:31:43.504Z,3.20
2019-01-04T10:34:11.371Z,3.40
2019-01-04T10:36:39.963Z,3.30
2019-01-04T10:39:08.040Z,3.50
2019-01-04T10:41:35.550Z,3.60
2019-01-04T10:44:04.515Z,3.70
2019-01-04T10:46:32.747Z,3.70
2019-01-04T10:49:01.743Z,3.60
2019-01-04T10:51:30.140Z,3.60
2019-01-04T10:53:58.367Z,3.70
2019-01-04T10:56:25.907Z,3.90
2019-01-04T10:58:53.808Z,4.00
2019-01-04T11:01:21.527Z,4.30
2019-01-04T11:03:49.940Z,4.10
2019-01-04T11:06:18.822Z,4.00
2019-01-04T11:08:46.777Z,3.90
2019-01-04T11:11:14.398Z,4.00
2019-01-04T11:13:42.306Z,3.80
2019-01-04T11:16:10.063Z,4.30
2019-01-04T11:18:37.890Z,4.50
2019-01-04T11:21:08.738Z,4.10
2019-01-04T11:24:12.296Z,4.60
2019-01-04T11:26:43.643Z,4.50
2019-01-04T11:29:52.226Z,4.30
2019-01-04T11:32:52.353Z,4.20
2019-01-04T11:35:44.306Z,4.40
2019-01-04T11:38:50.668Z,4.70
2019-01-04T11:42:02.858Z,4.80
2019-01-04T11:45:11.146Z,4.90
2019-01-04T11:48:26.835Z,4.70
2019-01-04T11:51:42.422Z,4.80
2019-01-04T11:54:17.234Z,5.00
2019-01-04T11:56:46.187Z,4.70
2019-01-04T11:59:14.292Z,4.80
2019-01-04T12:01:42.788Z,4.80
2019-01-04T12:04:11.406Z,4.30
2019-01-04T12:06:39.202Z,4.20
2019-01-04T12:09:09.095Z,4.30
2019-01-04T12:11:37.123Z,4.10
2019-01-04T12:14:05.000Z,4.30
2019-01-04T12:16:32.530Z,4.10
2019-01-04T12:19:00.112Z,4.90
2019-01-04T12:21:28.288Z,4.40
2019-01-04T12:23:57.766Z,4.20
2019-01-04T12:26:27.304Z,4.60
2019-01-04T12:28:57.133Z,4.40
2019-01-04T12:31:26.463Z,4.40
2019-01-04T12:33:55.140Z,4.40
2019-01-04T12:36:23.810Z,4.60
2019-01-04T12:38:52.945Z,4.60
2019-01-04T12:41:21.683Z,4.50
2019-01-04T12:43:50.182Z,4.40
2019-01-04T12:46:18.727Z,4.40
2019-01-04T12:48:46.850Z,4.50
2019-01-04T12:51:14.623Z,4.70
2019-01-04T12:53:44.850Z,4.40
2019-01-04T12:56:13.055Z,4.50
2019-01-04T12:58:42.587Z,4.40
2019-01-04T13:01:10.414Z,4.40
2019-01-04T13:03:38.532Z,4.50
2019-01-04T13:06:06.219Z,4.60
2019-01-04T13:08:34.625Z,4.60
2019-01-04T13:11:02.500Z,4.50
2019-01-04T13:13:30.767Z,4.50
2019-01-04T13:15:58.624Z,4.90
2019-01-04T13:18:26.569Z,4.90
2019-01-04T13:20:56.955Z,4.90
2019-01-04T13:23:25.122Z,4.50
2019-01-04T13:25:52.935Z,4.70
2019-01-04T13:28:20.856Z,4.90
2019-01-04T13:30:49.314Z,4.90
2019-01-04T13:33:19.665Z,4.70
2019-01-04T13:35:49.868Z,4.60
2019-01-04T13:38:20.165Z,4.70
2019-01-04T13:40:50.512Z,4.50
2019-01-04T13:43:19.811Z,4.40
2019-01-04T13:45:47.986Z,4.70
2019-01-04T13:48:15.613Z,4.40
2019-01-04T13:50:44.272Z,4.50
2019-01-04T13:53:20.447Z,4.50
2019-01-04T13:55:48.288Z,4.70
2019-01-04T13:58:17.046Z,4.50
2019-01-04T14:00:46.614Z,4.50
2019-01-04T14:03:14.587Z,4.70
2019-01-04T14:05:43.350Z,4.40
2019-01-04T14:08:11.582Z,4.60
2019-01-04T14:10:40.075Z,4.50
2019-01-04T14:13:09.455Z,4.50
2019-01-04T14:15:37.703Z,4.50
2019-01-04T14:18:06.510Z,4.80
2019-01-04T14:20:34.066Z,4.90
2019-01-04T14:23:03.124Z,4.90
2019-01-04T14:25:31.507Z,4.90
2019-01-04T14:28:00.088Z,4.50
2019-01-04T14:30:27.790Z,4.90
2019-01-04T14:32:55.568Z,4.60
2019-01-04T14:35:23.423Z,4.50
2019-01-04T14:37:52.018Z,4.50
2019-01-04T14:40:19.700Z,4.80
2019-01-04T14:42:50.190Z,4.90
2019-01-04T14:45:18.320Z,4.50
2019-01-04T14:47:50.043Z,4.70
2019-01-04T14:50:18.243Z,4.60
2019-01-04T14:52:46.999Z,4.70
2019-01-04T14:55:25.247Z,4.70
2019-01-04T14:57:53.436Z,4.90
2019-01-04T15:00:30.331Z,4.60
2019-01-04T15:02:58.546Z,4.70
2019-01-04T15:05:27.194Z,4.50
2019-01-04T15:07:55.090Z,4.50
2019-01-04T15:10:32.887Z,4.40
2019-01-04T15:13:00.699Z,4.80
2019-01-04T15:15:49.511Z,4.80
2019-01-04T15:18:16.986Z,4.70
2019-01-04T15:20:44.855Z,4.40
2019-01-04T15:23:13.468Z,4.30
2019-01-04T15:25:41.499Z,4.50
2019-01-04T15:28:09.035Z,4.40
2019-01-04T15:30:36.678Z,4.50
2019-01-04T15:33:04.895Z,4.20
2019-01-04T15:35:32.502Z,4.40
2019-01-04T15:38:00.412Z,4.40
2019-01-04T15:40:29.951Z,4.40
2019-01-04T15:42:59.410Z,4.40
2019-01-04T15:45:27.087Z,4.70
2019-01-04T15:47:54.598Z,4.30
2019-01-04T15:50:22.528Z,4.40
2019-01-04T15:52:52.082Z,4.60
2019-01-04T15:55:21.147Z,4.30
2019-01-04T15:58:01.082Z,4.40
2019-01-04T16:00:29.383Z,4.60
2019-01-04T16:02:56.993Z,4.40
2019-01-04T16:05:26.962Z,4.40
2019-01-04T16:07:55.262Z,4.40
2019-01-04T16:10:24.518Z,4.50
2019-01-04T16:12:53.222Z,4.60
2019-01-04T16:15:20.818Z,4.30
2019-01-04T16:17:48.326Z,4.30
2019-01-04T16:20:16.309Z,4.30
2019-01-04T16:22:44.185Z,4.40
2019-01-04T16:25:11.803Z,4.30
2019-01-04T16:27:39.354Z,4.40
2019-01-04T16:30:09.154Z,4.40
2019-01-04T16:32:36.667Z,4.60
2019-01-04T16:35:04.683Z,4.30
2019-01-04T16:37:34.871Z,4.10
2019-01-04T16:40:06.479Z,4.40
2019-01-04T16:42:35.469Z,4.50
2019-01-04T16:45:04.434Z,4.40
2019-01-04T16:47:33.315Z,4.30
2019-01-04T16:50:02.091Z,4.10
2019-01-04T16:52:30.039Z,4.30
2019-01-04T16:54:58.006Z,4.50
2019-01-04T16:57:28.774Z,4.30
2019-01-04T17:03:48.470Z,4.70
2019-01-04T17:06:22.083Z,4.40
2019-01-04T17:08:58.947Z,4.30
2019-01-04T17:11:32.545Z,4.30
2019-01-04T17:14:01.078Z,4.30
2019-01-04T17:16:29.399Z,4.50
2019-01-04T17:18:57.698Z,4.40
2019-01-04T17:21:26.394Z,4.30
2019-01-04T17:23:54.462Z,4.20
2019-01-04T17:26:23.722Z,4.60
2019-01-04T17:28:52.494Z,4.50
2019-01-04T17:31:19.995Z,4.50
2019-01-04T17:33:47.890Z,4.30
2019-01-04T17:36:15.528Z,4.40
2019-01-04T17:38:43.387Z,4.50
2019-01-04T19:50:47.442Z,4.60
2019-01-04T19:53:15.444Z,4.60
2019-01-04T19:55:43.697Z,4.40
2019-01-04T19:58:11.371Z,4.50
2019-01-04T20:00:39.023Z,4.40
2019-01-04T20:03:06.702Z,4.40
2019-01-04T20:06:42.492Z,4.30
2019-01-04T20:10:05.901Z,4.40
2019-01-04T20:13:36.042Z,4.40
2019-01-04T20:16:31.601Z,4.70
2019-01-04T20:19:19.312Z,4.80
2019-01-04T20:22:15.431Z,4.70
2019-01-04T20:25:14.600Z,4.50
2019-01-04T20:28:00.500Z,4.50
2019-01-04T20:30:48.053Z,4.40
2019-01-04T20:33:38.042Z,4.30
2019-01-04T20:36:30.278Z,4.40
2019-01-04T20:39:16.306Z,4.40
2019-01-04T20:42:03.906Z,4.30
2019-01-04T20:45:09.274Z,4.40
2019-01-04T20:47:59.855Z,4.50
2019-01-04T20:50:45.646Z,4.40
2019-01-04T20:53:28.651Z,4.30
2019-01-04T20:56:22.258Z,4.40
2019-01-04T20:59:07.953Z,4.60
2019-01-04T21:02:07.034Z,4.60
2019-01-04T21:04:54.556Z,4.30
2019-01-04T21:07:40.612Z,4.40
2019-01-04T21:10:33.391Z,4.50
2019-01-04T21:13:26.700Z,4.60
2019-01-04T21:16:13.937Z,4.50
2019-01-04T21:18:59.417Z,4.40
2019-01-04T21:21:44.890Z,4.50
2019-01-04T21:24:29.057Z,3.80
2019-01-04T21:27:17.227Z,4.40
2019-01-04T21:30:05.250Z,4.50
2019-01-04T21:33:01.667Z,4.10
2019-01-04T21:35:51.689Z,4.30
2019-01-04T21:38:37.485Z,4.30
2019-01-04T21:41:22.873Z,4.40
2019-01-04T21:44:08.458Z,4.10
2019-01-04T21:46:56.320Z,4.10
2019-01-04T21:49:42.787Z,4.20
2019-01-04T21:52:33.232Z,4.00
2019-01-04T21:55:15.435Z,4.30
2019-01-04T21:58:20.603Z,4.10
2019-01-04T22:01:04.238Z,4.00
2019-01-04T22:03:56.736Z,4.30
2019-01-04T22:06:55.550Z,4.10
2019-01-04T22:09:42.793Z,4.00
2019-01-04T22:12:28.391Z,4.10
2019-01-04T22:15:21.797Z,4.20
2019-01-04T22:18:14.876Z,4.20
2019-01-04T22:21:04.822Z,3.70
2019-01-04T22:23:54.650Z,3.90
2019-01-04T22:26:44.681Z,4.10
2019-01-04T22:29:37.634Z,4.00
2019-01-04T22:32:33.857Z,4.00
2019-01-04T22:35:35.914Z,3.70
2019-01-04T22:38:30.894Z,4.10
2019-01-04T22:41:09.433Z,3.90
2019-01-04T22:43:51.811Z,4.10
2019-01-04T22:46:38.759Z,3.90
2019-01-04T22:49:34.613Z,4.10
2019-01-04T22:52:20.260Z,4.00
2019-01-04T22:55:05.839Z,4.00
2019-01-04T22:57:53.832Z,3.90
2019-01-04T23:00:46.611Z,3.80
2019-01-04T23:03:32.622Z,4.10
2019-01-04T23:06:19.995Z,3.80
2019-01-04T23:09:22.138Z,3.60
2019-01-04T23:12:18.539Z,4.00
2019-01-04T23:15:20.016Z,4.00
2019-01-04T23:18:06.178Z,4.30
2019-01-04T23:20:53.882Z,4.10
2019-01-04T23:23:46.848Z,4.20
2019-01-04T23:26:32.425Z,4.20
2019-01-04T23:29:25.840Z,4.30
2019-01-04T23:32:15.974Z,4.20
2019-01-04T23:35:01.850Z,4.20
2019-01-04T23:37:48.862Z,3.90
2019-01-04T23:40:38.818Z,4.20
2019-01-04T23:43:28.670Z,4.20
2019-01-04T23:46:24.727Z,4.10
2019-01-04T23:49:20.930Z,4.00
2019-01-04T23:52:07.254Z,4.00
2019-01-04T23:54:58.386Z,4.00
2019-01-04T23:57:48.766Z,4.10
